Endeavor — WCE5063 — position and weather

sailwx.info

Track history (hours):
 
Tides and Currents Weather Stations Pressure Air Temp Water Temp Dewpoint Dewpoint Depression Visibility Wind Speed Wind Dir Waves Ship Positions

Oceanographic research ship Endeavor (USA)

Detailed information on ship capabilities available from University of Delaware's Ocean Information Center.

Owner: UNIVERSITY OF RHODE ISLAND, Narragansett, RI. More information available from US FCC via Universal Licensing System and Coast Guard Vessel Documentation Center.

Last reported at 2017-Mar-29 23:00 UTC. Time now 2017-Mar-30 04:54 UTC.
Position N 40°30' W 070°36'.

Type: Ship. MMSI: 303471000.

Wind from 040 at 13 knots

Barometer 1016.9 mb
Air temperature 5.7 ° C
Dewpoint 1.8 ° C
Water temperature 7.8 ° C

Date/timePositionNaut miles runAvg speedWind from/ knotsBaromVisibWave heightAir tempDewpointWater temp
2017-Mar-29 23:00N 40°30' W 070°36'6 6.0 040 / 131016.9 5.7 1.8 7.8
2017-Mar-29 22:00N 40°24' W 070°36'6 6.0 030 / 181016.1 5.8 0.9 7.8
2017-Mar-29 21:00N 40°30' W 070°36'0 0.0 020 / 131015.9 5.7 2.9 7.8
2017-Mar-29 20:00N 40°30' W 070°36'0 0.0 350 / 151015.8 7.0 4.0 7.8
2017-Mar-29 19:00N 40°30' W 070°36'6 6.0 360 / 171015.3 5.6 2.9 7.8
2017-Mar-29 18:00N 40°24' W 070°36'0 0.0 360 / 191014.9 5.4 2.8 7.8
2017-Mar-29 17:00N 40°24' W 070°36'6 6.0 350 / 221014.9 5.1 2.8 7.7
2017-Mar-29 16:00N 40°30' W 070°36'0 0.0 360 / 241014.4 5.6 3.3 7.7
2017-Mar-29 15:00N 40°30' W 070°36'9 0.6 010 / 281014.2 5.1 3.3 7.7
2017-Mar-29 00:00N 40°30' W 070°48'9 9.1 080 / 91011.8 6.1 5.7 7.3
2017-Mar-28 23:00N 40°30' W 070°36'8 7.5 090 / 141011.4 6.2 5.8 7.6
2017-Mar-28 22:00N 40°24' W 070°30'5 4.6 090 / 171011.5 6.2 5.8 7.8
2017-Mar-28 21:00N 40°24' W 070°36'5 4.6 080 / 181012.4 5.9 5.3 7.9
2017-Mar-28 20:00N 40°24' W 070°30'6 6.0 030 / 111013.5 6.1 5.4 7.8
2017-Mar-28 19:00N 40°30' W 070°30'6 6.0 100 / 191012.8 6.3 5.6 7.8
2017-Mar-28 18:00N 40°24' W 070°30'6 6.0 110 / 121014.1 6.3 5.6 7.8
2017-Mar-28 17:00N 40°30' W 070°30'5 4.6 120 / 161014.3 6.0 5.3 7.7
2017-Mar-28 16:00N 40°30' W 070°36'0 0.0 100 / 171014.3 5.8 5.2 7.7
2017-Mar-28 14:00N 40°30' W 070°36'6 6.0 070 / 121015.8 5.2 4.8 7.7
2017-Mar-28 13:00N 40°24' W 070°36'5 4.6 070 / 111016.3 5.0 4.7 7.7
2017-Mar-28 12:00N 40°24' W 070°30'0 0.0 080 / 181015.2 4.9 4.8 7.8
2017-Mar-28 11:00N 40°24' W 070°30'0 0.0 070 / 161015.3 4.6 4.5 7.8
2017-Mar-28 10:00N 40°24' W 070°30'0 0.0 060 / 141015.2 4.9 4.6 7.8
2017-Mar-28 09:00N 40°24' W 070°30'5 4.6 060 / 91014.9 5.4 5.1 7.8
2017-Mar-28 08:00N 40°24' W 070°24'0 0.0 050 / 121015.3 5.3 5.0 7.8
2017-Mar-28 07:00N 40°24' W 070°24'0 0.0 040 / 61015.5 6.1 5.8 7.9
2017-Mar-28 06:00N 40°24' W 070°24'0 0.0 320 / 41015.5 6.5 6.2 7.9
2017-Mar-28 05:00N 40°24' W 070°24'8 7.5 300 / 111016.1 7.5 7.1 7.9
2017-Mar-28 04:00N 40°30' W 070°30'0 0.0 260 / 101015.5 8.0 7.4 7.8
2017-Mar-28 03:00N 40°30' W 070°30'0 0.0 230 / 71015.5 8.8 8.2 7.8
2017-Mar-28 02:00N 40°30' W 070°30'6 6.0 220 / 101015.8 9.2 8.6 7.8
2017-Mar-28 01:00N 40°24' W 070°30'0 0.0 220 / 81016.0 9.2 8.3 7.8
2017-Mar-28 00:00N 40°24' W 070°30'6 6.0 230 / 121015.7 9.5 8.7 7.7
2017-Mar-27 23:00N 40°30' W 070°30'6 6.0 220 / 141015.6 9.1 8.3 7.7
2017-Mar-27 22:00N 40°24' W 070°30'6 6.0 210 / 91015.8 8.9 8.3 7.7
2017-Mar-27 21:00N 40°30' W 070°30'8 7.5 190 / 141016.1 9.2 8.9 7.7
2017-Mar-27 20:00N 40°24' W 070°36'5 4.6 190 / 121016.8 9.2 8.9 7.6
2017-Mar-27 19:00N 40°24' W 070°30'6 6.0 160 / 161017.5 8.6 8.3 7.5
2017-Mar-27 18:00N 40°30' W 070°30'5 4.6 160 / 151018.2 7.8 7.5 7.5
2017-Mar-27 17:00N 40°30' W 070°36'5 4.6 160 / 151018.9 7.3 7.0 7.4
2017-Mar-27 16:00N 40°30' W 070°42'0 0.0 150 / 141019.5 7.2 6.9 7.2
2017-Mar-27 15:00N 40°30' W 070°42'5 4.6 140 / 181020.3 7.2 6.9 7.1
2017-Mar-27 14:00N 40°30' W 070°36'6 6.0 130 / 111020.6 7.2 6.8 7.3
2017-Mar-27 13:00N 40°24' W 070°36'5 4.6 120 / 141021.2 7.3 6.4 7.4
2017-Mar-27 12:00N 40°24' W 070°30'0 0.0 120 / 171021.5 7.4 6.0 7.5
2017-Mar-27 11:00N 40°24' W 070°30'0 0.0 120 / 171021.6 7.3 6.1 7.5
2017-Mar-27 10:00N 40°24' W 070°30'6 6.0 110 / 191022.1 7.4 6.2 7.5
2017-Mar-27 09:00N 40°30' W 070°30'5 4.6 120 / 211022.7 7.3 5.6 7.4
2017-Mar-27 08:00N 40°30' W 070°24'5 4.6 110 / 161023.2 6.8 5.1 7.5
2017-Mar-27 07:00N 40°30' W 070°30'5 4.6 110 / 181024.1 6.6 4.8 7.4
2017-Mar-27 06:00N 40°30' W 070°24'0 0.0 100 / 181024.7 6.3 4.6 7.4
2017-Mar-27 05:00N 40°30' W 070°24'5 4.6 100 / 191025.6 6.2 4.2 7.4
2017-Mar-27 04:00N 40°30' W 070°30'0 0.0 100 / 181026.2 6.1 3.9 7.4
2017-Mar-27 03:00N 40°30' W 070°30'0 0.0 090 / 191027.2 5.7 3.0 7.3
2017-Mar-27 02:00N 40°30' W 070°30'6 6.0 100 / 181028.2 5.5 2.5 7.4
2017-Mar-27 01:00N 40°24' W 070°30'0 0.0 100 / 191028.7 5.3 2.1 7.4
2017-Mar-27 00:00N 40°24' W 070°30'5 4.6 090 / 191028.8 5.0 2.0 7.3
2017-Mar-26 23:00N 40°24' W 070°36'0 0.0 090 / 221029.0 4.7 0.8 7.2
2017-Mar-26 22:00N 40°24' W 070°36'6 6.0 080 / 221029.4 5.1 1.0 7.3
2017-Mar-26 21:00N 40°30' W 070°36'0 0.0 070 / 241029.4 5.4 1.4 7.2
2017-Mar-26 20:00N 40°30' W 070°36'0 0.0 080 / 211030.4 5.2 1.5 6.9
2017-Mar-26 19:00N 40°30' W 070°36'6 6.0 100 / 181031.2 5.4 1.5 6.9
2017-Mar-26 18:00N 40°24' W 070°36'6 6.0 100 / 181031.4 5.5 1.6 7.0
2017-Mar-26 17:00N 40°30' W 070°36'5 4.6 090 / 191030.9 5.8 1.3 7.1
2017-Mar-26 16:00N 40°30' W 070°30'0 0.0 090 / 181031.5 5.8 0.6 7.1
2017-Mar-26 15:00N 40°30' W 070°30'0 0.0 090 / 151031.7 5.4 2.0 7.1
2017-Mar-26 14:00N 40°30' W 070°30'5 4.6 070 / 151031.3 5.3 2.5 7.1
2017-Mar-26 13:00N 40°30' W 070°36'6 6.0 060 / 181030.8 5.2 2.4 7.2
2017-Mar-26 12:00N 40°24' W 070°36'0 0.0 060 / 191030.2 5.4 2.9 7.2
2017-Mar-26 11:00N 40°24' W 070°36'6 6.0 060 / 161030.2 4.6 2.3 7.2
2017-Mar-26 10:00N 40°30' W 070°36'5 4.6 050 / 161029.4 4.5 2.7 7.2
2017-Mar-26 09:00N 40°30' W 070°30'0 0.0 040 / 171029.1 4.1 2.3 7.2
2017-Mar-26 05:00N 40°30' W 070°30'0 0.0 030 / 151028.9 4.3 2.2 7.2
2017-Mar-26 04:00N 40°30' W 070°30'0 0.0 050 / 121028.5 4.4 2.3 7.2
2017-Mar-26 03:00N 40°30' W 070°30'0 0.0 040 / 161028.1 4.7 2.6 7.2
2017-Mar-26 02:00N 40°30' W 070°30'0 0.0 040 / 161027.8 4.3 2.3 7.2
2017-Mar-26 01:00N 40°30' W 070°30'5 4.6 040 / 151027.7 4.4 2.4 7.2
2017-Mar-26 00:00N 40°30' W 070°36'0 0.0 060 / 111025.7 5.1 2.6 7.2
2017-Mar-25 23:00N 40°30' W 070°36'8 7.5 060 / 131025.0 4.7 2.2 7.2
2017-Mar-25 22:00N 40°24' W 070°30'0 0.0 040 / 241025.1 4.8 2.5 7.4
2017-Mar-25 21:00N 40°24' W 070°30'8 7.5 020 / 241024.3 5.8 3.5 7.4
2017-Mar-25 20:00N 40°30' W 070°36'0 0.0 020 / 201022.6 6.2 4.8 7.3
2017-Mar-25 19:00N 40°30' W 070°36'0 0.0 030 / 121022.2 6.0 4.3 7.2
2017-Mar-25 18:00N 40°30' W 070°36'   050 / 111021.8 6.1 4.3 7.3
2017-Mar-23 05:00N 40°30' W 070°36'0 0.0 340 / 331025.9 -2.3-17.2 6.4
2017-Mar-23 04:00N 40°30' W 070°36'0 0.0 320 / 281025.3 -1.9-14.2 6.5
2017-Mar-23 03:00N 40°30' W 070°36'0 0.0 340 / 311024.3 -1.4-17.4 6.6
2017-Mar-23 02:00N 40°30' W 070°36'0 0.0 330 / 371023.4 -0.9-13.0 6.7
2017-Mar-23 01:00N 40°30' W 070°36'0 0.0 320 / 301022.1 -0.4-14.1 6.8
2017-Mar-23 00:00N 40°30' W 070°36'5 4.6 320 / 321020.8 -0.2-13.7 6.7
2017-Mar-22 23:00N 40°30' W 070°42'0 0.0 330 / 301019.6 -0.2-15.4 6.7
2017-Mar-22 22:00N 40°30' W 070°42'67 2.8 320 / 301017.9 0.4-12.9 6.6
2017-Mar-21 22:10N 41°28' W 071°24'  
Track history (hours):
 
Tides and Currents Weather Stations Pressure Air Temp Water Temp Dewpoint Dewpoint Depression Visibility Wind Speed Wind Dir Waves Ship Positions

Oceanographic research ship Endeavor (USA)

Detailed information on ship capabilities available from University of Delaware's Ocean Information Center.

Owner: UNIVERSITY OF RHODE ISLAND, Narragansett, RI. More information available from US FCC via Universal Licensing System and Coast Guard Vessel Documentation Center.

Last reported at 2017-Mar-29 23:00 UTC. Time now 2017-Mar-30 04:54 UTC.
Position N 40°30' W 070°36'.

Type: Ship. MMSI: 303471000.

Wind from 040 at 13 knots

Barometer 1016.9 mb
Air temperature 5.7 ° C
Dewpoint 1.8 ° C
Water temperature 7.8 ° C

Date/timePositionNaut miles runAvg speedWind from/ knotsBaromVisibWave heightAir tempDewpointWater temp
2017-Mar-29 23:00N 40°30' W 070°36'6 6.0 040 / 131016.9 5.7 1.8 7.8
2017-Mar-29 22:00N 40°24' W 070°36'6 6.0 030 / 181016.1 5.8 0.9 7.8
2017-Mar-29 21:00N 40°30' W 070°36'0 0.0 020 / 131015.9 5.7 2.9 7.8
2017-Mar-29 20:00N 40°30' W 070°36'0 0.0 350 / 151015.8 7.0 4.0 7.8
2017-Mar-29 19:00N 40°30' W 070°36'6 6.0 360 / 171015.3 5.6 2.9 7.8
2017-Mar-29 18:00N 40°24' W 070°36'0 0.0 360 / 191014.9 5.4 2.8 7.8
2017-Mar-29 17:00N 40°24' W 070°36'6 6.0 350 / 221014.9 5.1 2.8 7.7
2017-Mar-29 16:00N 40°30' W 070°36'0 0.0 360 / 241014.4 5.6 3.3 7.7
2017-Mar-29 15:00N 40°30' W 070°36'9 0.6 010 / 281014.2 5.1 3.3 7.7
2017-Mar-29 00:00N 40°30' W 070°48'9 9.1 080 / 91011.8 6.1 5.7 7.3
2017-Mar-28 23:00N 40°30' W 070°36'8 7.5 090 / 141011.4 6.2 5.8 7.6
2017-Mar-28 22:00N 40°24' W 070°30'5 4.6 090 / 171011.5 6.2 5.8 7.8
2017-Mar-28 21:00N 40°24' W 070°36'5 4.6 080 / 181012.4 5.9 5.3 7.9
2017-Mar-28 20:00N 40°24' W 070°30'6 6.0 030 / 111013.5 6.1 5.4 7.8
2017-Mar-28 19:00N 40°30' W 070°30'6 6.0 100 / 191012.8 6.3 5.6 7.8
2017-Mar-28 18:00N 40°24' W 070°30'6 6.0 110 / 121014.1 6.3 5.6 7.8
2017-Mar-28 17:00N 40°30' W 070°30'5 4.6 120 / 161014.3 6.0 5.3 7.7
2017-Mar-28 16:00N 40°30' W 070°36'0 0.0 100 / 171014.3 5.8 5.2 7.7
2017-Mar-28 14:00N 40°30' W 070°36'6 6.0 070 / 121015.8 5.2 4.8 7.7
2017-Mar-28 13:00N 40°24' W 070°36'5 4.6 070 / 111016.3 5.0 4.7 7.7
2017-Mar-28 12:00N 40°24' W 070°30'0 0.0 080 / 181015.2 4.9 4.8 7.8
2017-Mar-28 11:00N 40°24' W 070°30'0 0.0 070 / 161015.3 4.6 4.5 7.8
2017-Mar-28 10:00N 40°24' W 070°30'0 0.0 060 / 141015.2 4.9 4.6 7.8
2017-Mar-28 09:00N 40°24' W 070°30'5 4.6 060 / 91014.9 5.4 5.1 7.8
2017-Mar-28 08:00N 40°24' W 070°24'0 0.0 050 / 121015.3 5.3 5.0 7.8
2017-Mar-28 07:00N 40°24' W 070°24'0 0.0 040 / 61015.5 6.1 5.8 7.9
2017-Mar-28 06:00N 40°24' W 070°24'0 0.0 320 / 41015.5 6.5 6.2 7.9
2017-Mar-28 05:00N 40°24' W 070°24'8 7.5 300 / 111016.1 7.5 7.1 7.9
2017-Mar-28 04:00N 40°30' W 070°30'0 0.0 260 / 101015.5 8.0 7.4 7.8
2017-Mar-28 03:00N 40°30' W 070°30'0 0.0 230 / 71015.5 8.8 8.2 7.8
2017-Mar-28 02:00N 40°30' W 070°30'6 6.0 220 / 101015.8 9.2 8.6 7.8
2017-Mar-28 01:00N 40°24' W 070°30'0 0.0 220 / 81016.0 9.2 8.3 7.8
2017-Mar-28 00:00N 40°24' W 070°30'6 6.0 230 / 121015.7 9.5 8.7 7.7
2017-Mar-27 23:00N 40°30' W 070°30'6 6.0 220 / 141015.6 9.1 8.3 7.7
2017-Mar-27 22:00N 40°24' W 070°30'6 6.0 210 / 91015.8 8.9 8.3 7.7
2017-Mar-27 21:00N 40°30' W 070°30'8 7.5 190 / 141016.1 9.2 8.9 7.7
2017-Mar-27 20:00N 40°24' W 070°36'5 4.6 190 / 121016.8 9.2 8.9 7.6
2017-Mar-27 19:00N 40°24' W 070°30'6 6.0 160 / 161017.5 8.6 8.3 7.5
2017-Mar-27 18:00N 40°30' W 070°30'5 4.6 160 / 151018.2 7.8 7.5 7.5
2017-Mar-27 17:00N 40°30' W 070°36'5 4.6 160 / 151018.9 7.3 7.0 7.4
2017-Mar-27 16:00N 40°30' W 070°42'0 0.0 150 / 141019.5 7.2 6.9 7.2
2017-Mar-27 15:00N 40°30' W 070°42'5 4.6 140 / 181020.3 7.2 6.9 7.1
2017-Mar-27 14:00N 40°30' W 070°36'6 6.0 130 / 111020.6 7.2 6.8 7.3
2017-Mar-27 13:00N 40°24' W 070°36'5 4.6 120 / 141021.2 7.3 6.4 7.4
2017-Mar-27 12:00N 40°24' W 070°30'0 0.0 120 / 171021.5 7.4 6.0 7.5
2017-Mar-27 11:00N 40°24' W 070°30'0 0.0 120 / 171021.6 7.3 6.1 7.5
2017-Mar-27 10:00N 40°24' W 070°30'6 6.0 110 / 191022.1 7.4 6.2 7.5
2017-Mar-27 09:00N 40°30' W 070°30'5 4.6 120 / 211022.7 7.3 5.6 7.4
2017-Mar-27 08:00N 40°30' W 070°24'5 4.6 110 / 161023.2 6.8 5.1 7.5
2017-Mar-27 07:00N 40°30' W 070°30'5 4.6 110 / 181024.1 6.6 4.8 7.4
2017-Mar-27 06:00N 40°30' W 070°24'0 0.0 100 / 181024.7 6.3 4.6 7.4
2017-Mar-27 05:00N 40°30' W 070°24'5 4.6 100 / 191025.6 6.2 4.2 7.4
2017-Mar-27 04:00N 40°30' W 070°30'0 0.0 100 / 181026.2 6.1 3.9 7.4
2017-Mar-27 03:00N 40°30' W 070°30'0 0.0 090 / 191027.2 5.7 3.0 7.3
2017-Mar-27 02:00N 40°30' W 070°30'6 6.0 100 / 181028.2 5.5 2.5 7.4
2017-Mar-27 01:00N 40°24' W 070°30'0 0.0 100 / 191028.7 5.3 2.1 7.4
2017-Mar-27 00:00N 40°24' W 070°30'5 4.6 090 / 191028.8 5.0 2.0 7.3
2017-Mar-26 23:00N 40°24' W 070°36'0 0.0 090 / 221029.0 4.7 0.8 7.2
2017-Mar-26 22:00N 40°24' W 070°36'6 6.0 080 / 221029.4 5.1 1.0 7.3
2017-Mar-26 21:00N 40°30' W 070°36'0 0.0 070 / 241029.4 5.4 1.4 7.2
2017-Mar-26 20:00N 40°30' W 070°36'0 0.0 080 / 211030.4 5.2 1.5 6.9
2017-Mar-26 19:00N 40°30' W 070°36'6 6.0 100 / 181031.2 5.4 1.5 6.9
2017-Mar-26 18:00N 40°24' W 070°36'6 6.0 100 / 181031.4 5.5 1.6 7.0
2017-Mar-26 17:00N 40°30' W 070°36'5 4.6 090 / 191030.9 5.8 1.3 7.1
2017-Mar-26 16:00N 40°30' W 070°30'0 0.0 090 / 181031.5 5.8 0.6 7.1
2017-Mar-26 15:00N 40°30' W 070°30'0 0.0 090 / 151031.7 5.4 2.0 7.1
2017-Mar-26 14:00N 40°30' W 070°30'5 4.6 070 / 151031.3 5.3 2.5 7.1
2017-Mar-26 13:00N 40°30' W 070°36'6 6.0 060 / 181030.8 5.2 2.4 7.2
2017-Mar-26 12:00N 40°24' W 070°36'0 0.0 060 / 191030.2 5.4 2.9 7.2
2017-Mar-26 11:00N 40°24' W 070°36'6 6.0 060 / 161030.2 4.6 2.3 7.2
2017-Mar-26 10:00N 40°30' W 070°36'5 4.6 050 / 161029.4 4.5 2.7 7.2
2017-Mar-26 09:00N 40°30' W 070°30'0 0.0 040 / 171029.1 4.1 2.3 7.2
2017-Mar-26 05:00N 40°30' W 070°30'0 0.0 030 / 151028.9 4.3 2.2 7.2
2017-Mar-26 04:00N 40°30' W 070°30'0 0.0 050 / 121028.5 4.4 2.3 7.2
2017-Mar-26 03:00N 40°30' W 070°30'0 0.0 040 / 161028.1 4.7 2.6 7.2
2017-Mar-26 02:00N 40°30' W 070°30'0 0.0 040 / 161027.8 4.3 2.3 7.2
2017-Mar-26 01:00N 40°30' W 070°30'5 4.6 040 / 151027.7 4.4 2.4 7.2
2017-Mar-26 00:00N 40°30' W 070°36'0 0.0 060 / 111025.7 5.1 2.6 7.2
2017-Mar-25 23:00N 40°30' W 070°36'8 7.5 060 / 131025.0 4.7 2.2 7.2
2017-Mar-25 22:00N 40°24' W 070°30'0 0.0 040 / 241025.1 4.8 2.5 7.4
2017-Mar-25 21:00N 40°24' W 070°30'8 7.5 020 / 241024.3 5.8 3.5 7.4
2017-Mar-25 20:00N 40°30' W 070°36'0 0.0 020 / 201022.6 6.2 4.8 7.3
2017-Mar-25 19:00N 40°30' W 070°36'0 0.0 030 / 121022.2 6.0 4.3 7.2
2017-Mar-25 18:00N 40°30' W 070°36'   050 / 111021.8 6.1 4.3 7.3
2017-Mar-23 05:00N 40°30' W 070°36'0 0.0 340 / 331025.9 -2.3-17.2 6.4
2017-Mar-23 04:00N 40°30' W 070°36'0 0.0 320 / 281025.3 -1.9-14.2 6.5
2017-Mar-23 03:00N 40°30' W 070°36'0 0.0 340 / 311024.3 -1.4-17.4 6.6
2017-Mar-23 02:00N 40°30' W 070°36'0 0.0 330 / 371023.4 -0.9-13.0 6.7
2017-Mar-23 01:00N 40°30' W 070°36'0 0.0 320 / 301022.1 -0.4-14.1 6.8
2017-Mar-23 00:00N 40°30' W 070°36'5 4.6 320 / 321020.8 -0.2-13.7 6.7
2017-Mar-22 23:00N 40°30' W 070°42'0 0.0 330 / 301019.6 -0.2-15.4 6.7
2017-Mar-22 22:00N 40°30' W 070°42'67 2.8 320 / 301017.9 0.4-12.9 6.6
2017-Mar-21 22:10N 41°28' W 071°24'  

Dump ship's entire track history